Portada
METAR-TAF:

METAR-TAF

Aeroports :

Virginia Beach, Virgínia, Estats Units d'Amèrica

latitud: 36-49-16N, longitud: 076-01-42W, altitud: 6 m

Observació

L'informe es va fer fa 45 minuts, a les 02:56 UTC
Vent 10 kt del Nord/Nord-Oest
Temperatura 9°C
Humitat 57%
Pressió 1022 hPa
Visibilitat: 16.1 km
Cel clar

METAR: KNTU 210256Z 34010KT 10SM CLR 09/01 A3018 RMK AO2 SLP222 T00890011 51011

Hora: 22:41 (03:41 UTC)

Pronòstic

Pronòstic vàlid del 20 a les 23 UTC al 21 a les 23 UTC
Vent 12 kt del Nord-Oest amb ràfegues de 18 kt
Visibilitat 10 km o més
Núvols disperses a una alçada de 25000 ft
A partir de les 21 a les 1500 UTC
Vent 6 kt del Oest
Visibilitat 10 km o més
Cel ennuvolat a una alçada de 18000 ft
Cel ennuvolat a una alçada de 25000 ft

TAF: KNTU 2023/2123 32012G18KT 9999 SCT250 QNH3008INS FM211500 28006KT 9999 BKN180 BKN250 QNH3015INS T06/2110Z T11/2119Z FN20051

Observacions i pronòstics meteorològics de més de 4000 aeroports (METAR i TAF).

Les estacions disponibles són els punts grocs i vermells al mapa.

Posi el ratolí al punt desitjat per veure el nom de l'estació.

Feu clic per veure les observacions i els pronòstics meteorològics.

Per canviar el mapa: feu clic els botons verds amb una creu de color negre per apropar; al botó verd amb un guió per allunyar la imatge; o en les fletxes verdes per a mapes adjacents.


METAR-TAF: